sensor_id;sensor_type;location;lat;lon;timestamp;pressure;altitude;pressure_sealevel;temperature;humidity
74045;BME280;62389;51.412;5.436;2023-09-18T00:01:19;100473.25;;;18.70;100.00
74045;BME280;62389;51.412;5.436;2023-09-18T00:03:45;100472.41;;;18.69;100.00
74045;BME280;62389;51.412;5.436;2023-09-18T00:06:10;100468.09;;;18.68;100.00
74045;BME280;62389;51.412;5.436;2023-09-18T00:08:36;100461.19;;;18.66;100.00
74045;BME280;62389;51.412;5.436;2023-09-18T00:11:03;100464.94;;;18.63;100.00
74045;BME280;62389;51.412;5.436;2023-09-18T00:13:29;100453.38;;;18.64;100.00
74045;BME280;62389;51.412;5.436;2023-09-18T00:15:55;100449.91;;;18.63;100.00
74045;BME280;62389;51.412;5.436;2023-09-18T00:18:21;100440.13;;;18.64;100.00
74045;BME280;62389;51.412;5.436;2023-09-18T00:20:46;100438.47;;;18.63;100.00
74045;BME280;62389;51.412;5.436;2023-09-18T00:23:13;100434.97;;;18.62;100.00
74045;BME280;62389;51.412;5.436;2023-09-18T00:25:41;100429.69;;;18.62;100.00
74045;BME280;62389;51.412;5.436;2023-09-18T00:28:07;100429.69;;;18.62;100.00
74045;BME280;62389;51.412;5.436;2023-09-18T00:30:32;100423.50;;;18.62;100.00
74045;BME280;62389;51.412;5.436;2023-09-18T00:32:58;100415.72;;;18.60;100.00
74045;BME280;62389;51.412;5.436;2023-09-18T00:35:23;100409.56;;;18.60;100.00
74045;BME280;62389;51.412;5.436;2023-09-18T00:37:49;100393.81;;;18.58;100.00
74045;BME280;62389;51.412;5.436;2023-09-18T00:40:14;100390.19;;;18.59;100.00
74045;BME280;62389;51.412;5.436;2023-09-18T00:42:40;100384.91;;;18.59;100.00
74045;BME280;62389;51.412;5.436;2023-09-18T00:45:05;100395.63;;;18.58;100.00
74045;BME280;62389;51.412;5.436;2023-09-18T00:47:31;100395.63;;;18.58;100.00
74045;BME280;62389;51.412;5.436;2023-09-18T00:49:57;100384.16;;;18.57;100.00
74045;BME280;62389;51.412;5.436;2023-09-18T00:52:23;100386.81;;;18.57;100.00
74045;BME280;62389;51.412;5.436;2023-09-18T00:54:50;100381.66;;;18.56;100.00
74045;BME280;62389;51.412;5.436;2023-09-18T00:57:15;100380.00;;;18.55;100.00
74045;BME280;62389;51.412;5.436;2023-09-18T00:59:41;100380.13;;;18.53;100.00
74045;BME280;62389;51.412;5.436;2023-09-18T01:02:07;100371.34;;;18.53;100.00
74045;BME280;62389;51.412;5.436;2023-09-18T01:04:33;100361.31;;;18.56;100.00
74045;BME280;62389;51.412;5.436;2023-09-18T01:07:01;100359.88;;;18.52;100.00
74045;BME280;62389;51.412;5.436;2023-09-18T01:09:30;100357.13;;;18.54;100.00
74045;BME280;62389;51.412;5.436;2023-09-18T01:16:56;100333.41;;;18.52;100.00
74045;BME280;62389;51.412;5.436;2023-09-18T01:19:44;100333.16;;;18.55;100.00
74045;BME280;62389;51.412;5.436;2023-09-18T01:22:12;100340.41;;;18.53;100.00
74045;BME280;62389;51.412;5.436;2023-09-18T01:24:39;100336.78;;;18.54;100.00
74045;BME280;62389;51.412;5.436;2023-09-18T01:27:06;100332.31;;;18.55;100.00
74045;BME280;62389;51.412;5.436;2023-09-18T01:29:32;100342.06;;;18.54;100.00
74045;BME280;62389;51.412;5.436;2023-09-18T01:31:57;100338.31;;;18.57;100.00
74045;BME280;62389;51.412;5.436;2023-09-18T01:34:29;100333.84;;;18.57;100.00
74045;BME280;62389;51.412;5.436;2023-09-18T01:36:57;100338.19;;;18.58;100.00
74045;BME280;62389;51.412;5.436;2023-09-18T01:39:24;100338.06;;;18.60;100.00
74045;BME280;62389;51.412;5.436;2023-09-18T01:41:50;100336.25;;;18.60;100.00
74045;BME280;62389;51.412;5.436;2023-09-18T01:44:15;100331.69;;;18.62;100.00
74045;BME280;62389;51.412;5.436;2023-09-18T01:46:41;100329.88;;;18.63;100.00
74045;BME280;62389;51.412;5.436;2023-09-18T01:49:07;100335.03;;;18.64;100.00
74045;BME280;62389;51.412;5.436;2023-09-18T01:51:33;100337.53;;;18.66;100.00
74045;BME280;62389;51.412;5.436;2023-09-18T01:53:59;100322.25;;;18.70;100.00
74045;BME280;62389;51.412;5.436;2023-09-18T01:56:25;100324.66;;;18.73;100.00
74045;BME280;62389;51.412;5.436;2023-09-18T01:58:50;100307.78;;;18.74;100.00
74045;BME280;62389;51.412;5.436;2023-09-18T02:01:15;100311.13;;;18.76;100.00
74045;BME280;62389;51.412;5.436;2023-09-18T02:03:41;100304.84;;;18.77;100.00
74045;BME280;62389;51.412;5.436;2023-09-18T02:06:07;100313.53;;;18.79;100.00
74045;BME280;62389;51.412;5.436;2023-09-18T02:08:33;100304.59;;;18.80;100.00
74045;BME280;62389;51.412;5.436;2023-09-18T02:10:59;100301.09;;;18.79;100.00
74045;BME280;62389;51.412;5.436;2023-09-18T02:13:24;100298.47;;;18.79;100.00
74045;BME280;62389;51.412;5.436;2023-09-18T02:15:49;100301.94;;;18.80;100.00
74045;BME280;62389;51.412;5.436;2023-09-18T02:18:15;100304.59;;;18.80;100.00
74045;BME280;62389;51.412;5.436;2023-09-18T02:20:41;100302.91;;;18.79;100.00
74045;BME280;62389;51.412;5.436;2023-09-18T02:23:07;100296.78;;;18.78;100.00
74045;BME280;62389;51.412;5.436;2023-09-18T02:25:32;100288.00;;;18.78;100.00
74045;BME280;62389;51.412;5.436;2023-09-18T02:27:58;100285.34;;;18.78;100.00
74045;BME280;62389;51.412;5.436;2023-09-18T02:30:23;100280.06;;;18.78;100.00
74045;BME280;62389;51.412;5.436;2023-09-18T02:32:48;100281.97;;;18.76;100.00
74045;BME280;62389;51.412;5.436;2023-09-18T02:35:14;100289.22;;;18.74;100.00
74045;BME280;62389;51.412;5.436;2023-09-18T02:37:39;100291.06;;;18.73;100.00
74045;BME280;62389;51.412;5.436;2023-09-18T02:40:05;100291.88;;;18.74;100.00
74045;BME280;62389;51.412;5.436;2023-09-18T02:42:31;100290.91;;;18.75;100.00
74045;BME280;62389;51.412;5.436;2023-09-18T02:44:56;100259.81;;;18.77;100.00
74045;BME280;62389;51.412;5.436;2023-09-18T02:47:21;100262.19;;;18.80;100.00
74045;BME280;62389;51.412;5.436;2023-09-18T02:49:47;100246.44;;;18.78;100.00
74045;BME280;62389;51.412;5.436;2023-09-18T02:52:12;100234.72;;;18.81;100.00
74045;BME280;62389;51.412;5.436;2023-09-18T02:54:37;100234.72;;;18.81;100.00
74045;BME280;62389;51.412;5.436;2023-09-18T02:57:03;100231.25;;;18.80;100.00
74045;BME280;62389;51.412;5.436;2023-09-18T02:59:28;100234.03;;;18.79;100.00
74045;BME280;62389;51.412;5.436;2023-09-18T03:01:54;100239.34;;;18.79;100.00
74045;BME280;62389;51.412;5.436;2023-09-18T03:04:19;100233.19;;;18.78;100.00
74045;BME280;62389;51.412;5.436;2023-09-18T03:06:45;100225.38;;;18.77;100.00
74045;BME280;62389;51.412;5.436;2023-09-18T03:09:10;100202.34;;;18.77;100.00
74045;BME280;62389;51.412;5.436;2023-09-18T03:11:35;100202.66;;;18.74;100.00
74045;BME280;62389;51.412;5.436;2023-09-18T03:14:01;100202.78;;;18.73;100.00
74045;BME280;62389;51.412;5.436;2023-09-18T03:16:26;100218.94;;;18.70;100.00
74045;BME280;62389;51.412;5.436;2023-09-18T03:18:52;100228.94;;;18.66;100.00
74045;BME280;62389;51.412;5.436;2023-09-18T03:21:17;100232.69;;;18.63;100.00
74045;BME280;62389;51.412;5.436;2023-09-18T03:23:42;100238.97;;;18.62;100.00
74045;BME280;62389;51.412;5.436;2023-09-18T03:26:08;100254.97;;;18.61;100.00
74045;BME280;62389;51.412;5.436;2023-09-18T03:28:33;100251.34;;;18.62;100.00
74045;BME280;62389;51.412;5.436;2023-09-18T03:30:59;100241.63;;;18.62;100.00
74045;BME280;62389;51.412;5.436;2023-09-18T03:33:24;100236.19;;;18.64;100.00
74045;BME280;62389;51.412;5.436;2023-09-18T03:35:51;100236.19;;;18.64;100.00
74045;BME280;62389;51.412;5.436;2023-09-18T03:38:19;100241.19;;;18.67;100.00
74045;BME280;62389;51.412;5.436;2023-09-18T03:40:45;100238.19;;;18.72;100.00
74045;BME280;62389;51.412;5.436;2023-09-18T03:43:11;100232.88;;;18.72;100.00
74045;BME280;62389;51.412;5.436;2023-09-18T03:45:39;100240.72;;;18.73;100.00
74045;BME280;62389;51.412;5.436;2023-09-18T03:48:08;100243.22;;;18.75;100.00
74045;BME280;62389;51.412;5.436;2023-09-18T03:50:33;100239.44;;;18.77;100.00
74045;BME280;62389;51.412;5.436;2023-09-18T03:52:58;100224.28;;;18.79;100.00
74045;BME280;62389;51.412;5.436;2023-09-18T03:55:24;100230.41;;;18.80;100.00
74045;BME280;62389;51.412;5.436;2023-09-18T03:57:51;100230.25;;;18.81;100.00
74045;BME280;62389;51.412;5.436;2023-09-18T04:00:17;100223.16;;;18.82;100.00
74045;BME280;62389;51.412;5.436;2023-09-18T04:02:42;100238.09;;;18.83;100.00
74045;BME280;62389;51.412;5.436;2023-09-18T04:05:08;100253.03;;;18.84;100.00
74045;BME280;62389;51.412;5.436;2023-09-18T04:07:34;100247.44;;;18.87;100.00
74045;BME280;62389;51.412;5.436;2023-09-18T04:09:59;100248.28;;;18.87;100.00
74045;BME280;62389;51.412;5.436;2023-09-18T04:12:25;100239.38;;;18.88;100.00
74045;BME280;62389;51.412;5.436;2023-09-18T04:14:50;100226.97;;;18.89;100.00
74045;BME280;62389;51.412;5.436;2023-09-18T04:17:16;100222.63;;;18.88;100.00
74045;BME280;62389;51.412;5.436;2023-09-18T04:19:41;100210.22;;;18.88;100.00
74045;BME280;62389;51.412;5.436;2023-09-18T04:22:08;100210.06;;;18.90;100.00
74045;BME280;62389;51.412;5.436;2023-09-18T04:24:33;100212.72;;;18.90;100.00
74045;BME280;62389;51.412;5.436;2023-09-18T04:26:59;100215.38;;;18.90;100.00
74045;BME280;62389;51.412;5.436;2023-09-18T04:29:24;100210.91;;;18.91;100.00
74045;BME280;62389;51.412;5.436;2023-09-18T04:31:50;100210.91;;;18.91;100.00
74045;BME280;62389;51.412;5.436;2023-09-18T04:34:15;100201.16;;;18.91;100.00
74045;BME280;62389;51.412;5.436;2023-09-18T04:36:40;100187.91;;;18.91;100.00
74045;BME280;62389;51.412;5.436;2023-09-18T04:39:06;100169.34;;;18.91;100.00
74045;BME280;62389;51.412;5.436;2023-09-18T04:41:32;100162.38;;;18.90;100.00
74045;BME280;62389;51.412;5.436;2023-09-18T04:43:59;100165.88;;;18.91;100.00
74045;BME280;62389;51.412;5.436;2023-09-18T04:46:24;100169.34;;;18.91;100.00
74045;BME280;62389;51.412;5.436;2023-09-18T04:48:50;100153.44;;;18.91;100.00
74045;BME280;62389;51.412;5.436;2023-09-18T04:51:15;100164.88;;;18.92;100.00
74045;BME280;62389;51.412;5.436;2023-09-18T04:53:41;100157.78;;;18.92;100.00
74045;BME280;62389;51.412;5.436;2023-09-18T04:56:07;100160.41;;;18.92;100.00
74045;BME280;62389;51.412;5.436;2023-09-18T04:58:33;100165.88;;;18.91;100.00
74045;BME280;62389;51.412;5.436;2023-09-18T05:00:59;100159.72;;;18.90;100.00
74045;BME280;62389;51.412;5.436;2023-09-18T05:03:26;100151.78;;;18.90;100.00
74045;BME280;62389;51.412;5.436;2023-09-18T05:05:54;100151.94;;;18.88;100.00
74045;BME280;62389;51.412;5.436;2023-09-18T05:08:20;100157.34;;;18.87;100.00
74045;BME280;62389;51.412;5.436;2023-09-18T05:10:45;100162.94;;;18.84;100.00
74045;BME280;62389;51.412;5.436;2023-09-18T05:13:11;100155.97;;;18.83;100.00
74045;BME280;62389;51.412;5.436;2023-09-18T05:15:37;100161.38;;;18.81;100.00
74045;BME280;62389;51.412;5.436;2023-09-18T05:18:03;100164.19;;;18.80;100.00
74045;BME280;62389;51.412;5.436;2023-09-18T05:20:30;100153.72;;;18.78;100.00
74045;BME280;62389;51.412;5.436;2023-09-18T05:22:57;100154.81;;;18.76;100.00
74045;BME280;62389;51.412;5.436;2023-09-18T05:25:24;100159.28;;;18.75;100.00
74045;BME280;62389;51.412;5.436;2023-09-18T05:27:54;100166.41;;;18.75;100.00
74045;BME280;62389;51.412;5.436;2023-09-18T05:30:27;100158.72;;;18.72;100.00
74045;BME280;62389;51.412;5.436;2023-09-18T05:32:58;100166.66;;;18.72;100.00
74045;BME280;62389;51.412;5.436;2023-09-18T05:35:34;100167.78;;;18.69;100.00
74045;BME280;62389;51.412;5.436;2023-09-18T05:38:00;100175.59;;;18.71;100.00
74045;BME280;62389;51.412;5.436;2023-09-18T05:40:26;100155.38;;;18.70;100.00
74045;BME280;62389;51.412;5.436;2023-09-18T05:42:55;100166.94;;;18.69;100.00
74045;BME280;62389;51.412;5.436;2023-09-18T05:45:21;100178.50;;;18.68;100.00
74045;BME280;62389;51.412;5.436;2023-09-18T05:47:47;100185.56;;;18.67;100.00
74045;BME280;62389;51.412;5.436;2023-09-18T05:50:13;100186.44;;;18.68;100.00
74045;BME280;62389;51.412;5.436;2023-09-18T05:52:41;100186.44;;;18.68;100.00
74045;BME280;62389;51.412;5.436;2023-09-18T05:55:07;100180.41;;;18.66;100.00
74045;BME280;62389;51.412;5.436;2023-09-18T05:57:33;100192.69;;;18.67;100.00
74045;BME280;62389;51.412;5.436;2023-09-18T05:59:59;100195.31;;;18.67;100.00
74045;BME280;62389;51.412;5.436;2023-09-18T06:02:25;100203.28;;;18.67;100.00
74045;BME280;62389;51.412;5.436;2023-09-18T06:05:00;100205.91;;;18.67;100.00
74045;BME280;62389;51.412;5.436;2023-09-18T06:07:27;100220.88;;;18.68;100.00
74045;BME280;62389;51.412;5.436;2023-09-18T06:09:52;100221.97;;;18.65;100.00
74045;BME280;62389;51.412;5.436;2023-09-18T06:12:18;100200.78;;;18.65;100.00
74045;BME280;62389;51.412;5.436;2023-09-18T06:14:44;100197.97;;;18.67;100.00
74045;BME280;62389;51.412;5.436;2023-09-18T06:17:10;100198.25;;;18.63;100.00
74045;BME280;62389;51.412;5.436;2023-09-18T06:19:35;100199.94;;;18.64;100.00
74045;BME280;62389;51.412;5.436;2023-09-18T06:22:01;100213.31;;;18.63;100.00
74045;BME280;62389;51.412;5.436;2023-09-18T06:24:27;100219.56;;;18.62;100.00
74045;BME280;62389;51.412;5.436;2023-09-18T06:26:53;100218.72;;;18.61;100.00
74045;BME280;62389;51.412;5.436;2023-09-18T06:29:18;100221.38;;;18.61;100.00
74045;BME280;62389;51.412;5.436;2023-09-18T06:31:44;100217.78;;;18.62;100.00
74045;BME280;62389;51.412;5.436;2023-09-18T06:34:09;100220.53;;;18.61;100.00
74045;BME280;62389;51.412;5.436;2023-09-18T06:36:34;100228.50;;;18.61;100.00
74045;BME280;62389;51.412;5.436;2023-09-18T06:39:00;100233.69;;;18.62;100.00
74045;BME280;62389;51.412;5.436;2023-09-18T06:41:25;100231.03;;;18.62;100.00
74045;BME280;62389;51.412;5.436;2023-09-18T06:43:51;100233.69;;;18.62;100.00
74045;BME280;62389;51.412;5.436;2023-09-18T06:46:16;100240.66;;;18.63;100.00
74045;BME280;62389;51.412;5.436;2023-09-18T06:48:41;100247.88;;;18.61;100.00
74045;BME280;62389;51.412;5.436;2023-09-18T06:51:10;100250.25;;;18.64;100.00
74045;BME280;62389;51.412;5.436;2023-09-18T06:53:36;100258.22;;;18.64;100.00
74045;BME280;62389;51.412;5.436;2023-09-18T06:56:01;100249.44;;;18.64;100.00
74045;BME280;62389;51.412;5.436;2023-09-18T06:58:27;100259.03;;;18.65;100.00
74045;BME280;62389;51.412;5.436;2023-09-18T07:00:52;100257.94;;;18.68;100.00
74045;BME280;62389;51.412;5.436;2023-09-18T07:03:17;100254.56;;;18.66;100.00
74045;BME280;62389;51.412;5.436;2023-09-18T07:05:43;100244.28;;;18.62;100.00
74045;BME280;62389;51.412;5.436;2023-09-18T07:08:08;100264.47;;;18.63;100.00
74045;BME280;62389;51.412;5.436;2023-09-18T07:10:36;100267.97;;;18.64;100.00
74045;BME280;62389;51.412;5.436;2023-09-18T07:13:02;100260.84;;;18.64;100.00
74045;BME280;62389;51.412;5.436;2023-09-18T07:15:27;100273.25;;;18.64;100.00
74045;BME280;62389;51.412;5.436;2023-09-18T07:17:53;100284.94;;;18.61;100.00
74045;BME280;62389;51.412;5.436;2023-09-18T07:20:18;100276.31;;;18.59;100.00
74045;BME280;62389;51.412;5.436;2023-09-18T07:22:47;100275.31;;;18.60;100.00
74045;BME280;62389;51.412;5.436;2023-09-18T07:25:13;100277.97;;;18.60;100.00
74045;BME280;62389;51.412;5.436;2023-09-18T07:27:38;100286.66;;;18.62;100.00
74045;BME280;62389;51.412;5.436;2023-09-18T07:30:10;100288.44;;;18.62;100.00
74045;BME280;62389;51.412;5.436;2023-09-18T07:32:35;100280.22;;;18.65;100.00
74045;BME280;62389;51.412;5.436;2023-09-18T07:35:01;100282.75;;;18.67;100.00
74045;BME280;62389;51.412;5.436;2023-09-18T07:37:26;100289.75;;;18.68;100.00
74045;BME280;62389;51.412;5.436;2023-09-18T07:39:53;100292.38;;;18.68;100.00
74045;BME280;62389;51.412;5.436;2023-09-18T07:42:18;100288.88;;;18.67;100.00
74045;BME280;62389;51.412;5.436;2023-09-18T07:44:43;100299.25;;;18.70;100.00
74045;BME280;62389;51.412;5.436;2023-09-18T07:47:09;100300.53;;;18.76;100.00
74045;BME280;62389;51.412;5.436;2023-09-18T07:49:34;100300.13;;;18.80;100.00
74045;BME280;62389;51.412;5.436;2023-09-18T07:51:59;100292.75;;;18.84;100.00
74045;BME280;62389;51.412;5.436;2023-09-18T07:54:25;100293.31;;;18.87;100.00
74045;BME280;62389;51.412;5.436;2023-09-18T07:56:50;100283.59;;;18.88;100.00
74045;BME280;62389;51.412;5.436;2023-09-18T07:59:16;100282.59;;;18.89;100.00
74045;BME280;62389;51.412;5.436;2023-09-18T08:01:42;100279.81;;;18.91;100.00
74045;BME280;62389;51.412;5.436;2023-09-18T08:04:07;100285.94;;;18.91;100.00
74045;BME280;62389;51.412;5.436;2023-09-18T08:06:32;100280.06;;;18.87;100.00
74045;BME280;62389;51.412;5.436;2023-09-18T08:08:58;100288.31;;;18.84;100.00
74045;BME280;62389;51.412;5.436;2023-09-18T08:11:23;100283.84;;;18.85;100.00
74045;BME280;62389;51.412;5.436;2023-09-18T08:13:49;100298.22;;;18.92;100.00
74045;BME280;62389;51.412;5.436;2023-09-18T08:16:14;100292.84;;;19.03;100.00
74045;BME280;62389;51.412;5.436;2023-09-18T08:18:39;100303.78;;;19.29;100.00
74045;BME280;62389;51.412;5.436;2023-09-18T08:21:07;100300.13;;;20.09;95.75
74045;BME280;62389;51.412;5.436;2023-09-18T08:23:35;100299.63;;;20.43;91.44
74045;BME280;62389;51.412;5.436;2023-09-18T08:26:00;100315.41;;;20.64;89.54
74045;BME280;62389;51.412;5.436;2023-09-18T08:28:26;100299.56;;;21.09;89.37
74045;BME280;62389;51.412;5.436;2023-09-18T08:30:51;100299.94;;;21.42;86.73
74045;BME280;62389;51.412;5.436;2023-09-18T08:33:17;100329.44;;;21.31;85.81
74045;BME280;62389;51.412;5.436;2023-09-18T08:35:42;100324.19;;;21.11;86.93
74045;BME280;62389;51.412;5.436;2023-09-18T08:38:09;100322.06;;;21.42;89.17
74045;BME280;62389;51.412;5.436;2023-09-18T08:40:34;100332.75;;;21.60;84.08
74045;BME280;62389;51.412;5.436;2023-09-18T08:43:03;100334.81;;;21.66;86.23
74045;BME280;62389;51.412;5.436;2023-09-18T08:45:51;100324.09;;;22.30;80.99
74045;BME280;62389;51.412;5.436;2023-09-18T08:48:18;100324.56;;;22.51;79.88
74045;BME280;62389;51.412;5.436;2023-09-18T08:50:45;100322.31;;;22.38;79.71
74045;BME280;62389;51.412;5.436;2023-09-18T08:53:11;100319.13;;;22.35;79.86
74045;BME280;62389;51.412;5.436;2023-09-18T08:55:36;100318.75;;;22.82;80.34
74045;BME280;62389;51.412;5.436;2023-09-18T08:58:02;100325.16;;;24.22;73.89
74045;BME280;62389;51.412;5.436;2023-09-18T09:00:28;100316.47;;;24.53;72.36
74045;BME280;62389;51.412;5.436;2023-09-18T09:02:54;100312.16;;;25.39;70.82
74045;BME280;62389;51.412;5.436;2023-09-18T09:05:21;100314.81;;;26.01;65.74
74045;BME280;62389;51.412;5.436;2023-09-18T09:07:46;100310.69;;;26.13;68.59
74045;BME280;62389;51.412;5.436;2023-09-18T09:10:12;100307.06;;;26.06;66.60
74045;BME280;62389;51.412;5.436;2023-09-18T09:12:58;100316.47;;;25.79;68.83
74045;BME280;62389;51.412;5.436;2023-09-18T09:15:26;100329.81;;;25.56;66.45
74045;BME280;62389;51.412;5.436;2023-09-18T09:18:02;100333.72;;;24.98;67.27
74045;BME280;62389;51.412;5.436;2023-09-18T09:20:28;100326.97;;;24.54;69.72
74045;BME280;62389;51.412;5.436;2023-09-18T09:23:00;100339.19;;;24.33;70.76
74045;BME280;62389;51.412;5.436;2023-09-18T09:25:27;100333.47;;;23.70;71.13
74045;BME280;62389;51.412;5.436;2023-09-18T09:27:56;100331.50;;;23.81;72.33
74045;BME280;62389;51.412;5.436;2023-09-18T09:30:24;100336.63;;;23.74;72.47
74045;BME280;62389;51.412;5.436;2023-09-18T09:32:51;100342.47;;;23.69;73.94
74045;BME280;62389;51.412;5.436;2023-09-18T09:37:47;100338.06;;;23.52;71.93
74045;BME280;62389;51.412;5.436;2023-09-18T09:40:13;100344.03;;;23.30;73.87
74045;BME280;62389;51.412;5.436;2023-09-18T09:42:40;100342.38;;;23.03;75.33
74045;BME280;62389;51.412;5.436;2023-09-18T09:45:13;100331.66;;;22.68;75.77
74045;BME280;62389;51.412;5.436;2023-09-18T09:47:41;100319.13;;;22.35;76.64
74045;BME280;62389;51.412;5.436;2023-09-18T09:50:13;100320.34;;;22.40;78.02
74045;BME280;62389;51.412;5.436;2023-09-18T09:52:46;100325.88;;;22.47;77.72
74045;BME280;62389;51.412;5.436;2023-09-18T09:55:27;100322.47;;;22.63;79.42
74045;BME280;62389;51.412;5.436;2023-09-18T09:58:03;100337.41;;;22.82;76.70
74045;BME280;62389;51.412;5.436;2023-09-18T10:00:39;100336.94;;;22.86;77.42
74045;BME280;62389;51.412;5.436;2023-09-18T10:03:12;100350.28;;;22.60;75.26
74045;BME280;62389;51.412;5.436;2023-09-18T10:05:41;100351.09;;;22.35;78.26
74045;BME280;62389;51.412;5.436;2023-09-18T10:08:10;100362.84;;;22.24;78.80
74045;BME280;62389;51.412;5.436;2023-09-18T10:10:39;100361.44;;;22.02;78.92
74045;BME280;62389;51.412;5.436;2023-09-18T10:13:09;100370.19;;;21.77;80.27
74045;BME280;62389;51.412;5.436;2023-09-18T10:15:38;100379.13;;;21.58;80.88
74045;BME280;62389;51.412;5.436;2023-09-18T10:18:06;100383.41;;;21.41;82.11
74045;BME280;62389;51.412;5.436;2023-09-18T10:20:39;100373.06;;;21.28;83.57
74045;BME280;62389;51.412;5.436;2023-09-18T10:23:15;100371.16;;;21.20;84.05
74045;BME280;62389;51.412;5.436;2023-09-18T10:25:47;100380.53;;;21.25;84.44
74045;BME280;62389;51.412;5.436;2023-09-18T10:28:14;100367.75;;;21.28;84.41
74045;BME280;62389;51.412;5.436;2023-09-18T10:30:41;100363.31;;;21.29;83.54
74045;BME280;62389;51.412;5.436;2023-09-18T10:33:07;100367.06;;;21.36;84.55
74045;BME280;62389;51.412;5.436;2023-09-18T10:35:33;100372.78;;;21.41;84.14
74045;BME280;62389;51.412;5.436;2023-09-18T10:38:00;100378.69;;;21.35;84.82
74045;BME280;62389;51.412;5.436;2023-09-18T10:40:28;100372.94;;;21.30;83.84
74045;BME280;62389;51.412;5.436;2023-09-18T10:42:57;100380.13;;;21.19;83.70
74045;BME280;62389;51.412;5.436;2023-09-18T10:45:23;100375.09;;;21.16;83.43
74045;BME280;62389;51.412;5.436;2023-09-18T10:47:50;100365.59;;;21.14;84.25
74045;BME280;62389;51.412;5.436;2023-09-18T10:50:25;100377.16;;;21.23;84.07
74045;BME280;62389;51.412;5.436;2023-09-18T10:52:51;100370.88;;;21.24;83.90
74045;BME280;62389;51.412;5.436;2023-09-18T10:55:16;100357.88;;;21.48;83.66
74045;BME280;62389;51.412;5.436;2023-09-18T10:57:53;100356.47;;;21.71;84.48
74045;BME280;62389;51.412;5.436;2023-09-18T11:00:21;100357.69;;;21.77;81.43
74045;BME280;62389;51.412;5.436;2023-09-18T11:03:08;100358.31;;;21.71;80.67
74045;BME280;62389;51.412;5.436;2023-09-18T11:05:35;100354.38;;;21.75;81.25
74045;BME280;62389;51.412;5.436;2023-09-18T11:08:26;100335.34;;;21.88;82.01
74045;BME280;62389;51.412;5.436;2023-09-18T11:10:57;100341.50;;;22.06;80.98
74045;BME280;62389;51.412;5.436;2023-09-18T11:13:56;100353.44;;;22.02;79.50
74045;BME280;62389;51.412;5.436;2023-09-18T11:21:26;100363.47;;;21.72;80.17
74045;BME280;62389;51.412;5.436;2023-09-18T11:24:19;100369.56;;;21.83;80.70
74045;BME280;62389;51.412;5.436;2023-09-18T11:26:49;100349.81;;;21.85;80.40
74045;BME280;62389;51.412;5.436;2023-09-18T11:29:16;100371.09;;;21.85;79.21
74045;BME280;62389;51.412;5.436;2023-09-18T11:31:51;100374.31;;;21.89;76.66
74045;BME280;62389;51.412;5.436;2023-09-18T11:34:23;100357.41;;;21.98;74.65
74045;BME280;62389;51.412;5.436;2023-09-18T11:36:50;100363.16;;;22.21;76.09
74045;BME280;62389;51.412;5.436;2023-09-18T11:39:37;100354.75;;;22.34;73.98
74045;BME280;62389;51.412;5.436;2023-09-18T11:42:19;100350.28;;;22.60;74.11
74045;BME280;62389;51.412;5.436;2023-09-18T11:44:49;100348.03;;;22.73;70.34
74045;BME280;62389;51.412;5.436;2023-09-18T11:47:16;100342.00;;;22.89;71.38
74045;BME280;62389;51.412;5.436;2023-09-18T11:49:58;100336.53;;;22.99;71.40
74045;BME280;62389;51.412;5.436;2023-09-18T11:52:28;100347.13;;;23.17;70.43
74045;BME280;62389;51.412;5.436;2023-09-18T11:54:57;100346.34;;;23.24;69.23
74045;BME280;62389;51.412;5.436;2023-09-18T11:57:22;100337.69;;;23.31;68.48
74045;BME280;62389;51.412;5.436;2023-09-18T11:59:49;100337.69;;;23.39;68.44
74045;BME280;62389;51.412;5.436;2023-09-18T12:02:31;100343.53;;;23.42;68.30
74045;BME280;62389;51.412;5.436;2023-09-18T12:05:11;100338.72;;;23.46;66.82
74045;BME280;62389;51.412;5.436;2023-09-18T12:07:39;100329.06;;;23.53;66.23
74045;BME280;62389;51.412;5.436;2023-09-18T12:10:09;100334.75;;;23.58;65.70
74045;BME280;62389;51.412;5.436;2023-09-18T12:12:35;100334.75;;;23.58;66.26
74045;BME280;62389;51.412;5.436;2023-09-18T12:15:01;100341.88;;;23.41;66.85
74045;BME280;62389;51.412;5.436;2023-09-18T12:17:26;100330.47;;;23.15;65.76
74045;BME280;62389;51.412;5.436;2023-09-18T12:19:55;100338.59;;;23.05;67.05
74045;BME280;62389;51.412;5.436;2023-09-18T12:22:28;100328.09;;;23.12;67.98
74045;BME280;62389;51.412;5.436;2023-09-18T12:25:11;100327.78;;;23.15;69.13
74045;BME280;62389;51.412;5.436;2023-09-18T12:27:36;100327.00;;;23.31;68.75
74045;BME280;62389;51.412;5.436;2023-09-18T12:30:04;100333.03;;;23.49;68.88
74045;BME280;62389;51.412;5.436;2023-09-18T12:32:32;100323.06;;;23.59;66.89
74045;BME280;62389;51.412;5.436;2023-09-18T12:35:01;100311.28;;;23.70;67.23
74045;BME280;62389;51.412;5.436;2023-09-18T12:37:26;100317.81;;;23.75;66.64
74045;BME280;62389;51.412;5.436;2023-09-18T12:39:51;100323.13;;;23.67;66.98
74045;BME280;62389;51.412;5.436;2023-09-18T12:42:20;100318.22;;;23.46;66.89
74045;BME280;62389;51.412;5.436;2023-09-18T12:44:49;100326.31;;;23.29;67.54
74045;BME280;62389;51.412;5.436;2023-09-18T12:47:16;100312.13;;;23.28;68.75
74045;BME280;62389;51.412;5.436;2023-09-18T12:49:41;100318.00;;;23.32;68.17
74045;BME280;62389;51.412;5.436;2023-09-18T12:52:06;100301.78;;;23.17;67.96
74045;BME280;62389;51.412;5.436;2023-09-18T12:54:42;100309.72;;;23.00;69.62
74045;BME280;62389;51.412;5.436;2023-09-18T12:57:09;100307.44;;;22.80;69.21